YCH weather

Miramichi Airport
Miramichi, New Brunswick, Canada

Public forecast

Using degrees Celsius for public forecast. Weather courtesy of forecast.io.

Closest aviation weather report (METAR) to Miramichi Airport

Closest report is Bathurst Airport, 39.2 nm (72.5 km) NNW. Retrieved 2019/11/14 05:00 UTC (29 seconds ago):

CZBF 140500Z AUTO 27005KT 240V300 9SM CLR M08/M13 A3022 RMK SLP240

Closest aviation forecast (TAF) to Miramichi Airport

Closest forecast is Bathurst Airport, 39.2 nm (72.5 km) NNW. Retrieved 2019-11-14 02:00 UTC (3 hours ago):

TAF CZBF 140138Z 1402/1404 29010KT P6SM FEW030 RMK FCST BASED ON AUTO OBS NXT FCST WILL BE ISSUED AT 140945Z